sensor_id;sensor_type;location;lat;lon;timestamp;temperature;humidity
37786;DHT22;23625;48.784;9.336;2022-10-16T00:01:58;15.80;99.90
37786;DHT22;23625;48.784;9.336;2022-10-16T00:04:24;15.90;99.90
37786;DHT22;23625;48.784;9.336;2022-10-16T00:06:50;15.90;99.90
37786;DHT22;23625;48.784;9.336;2022-10-16T00:09:16;15.90;99.90
37786;DHT22;23625;48.784;9.336;2022-10-16T00:11:41;15.80;99.90
37786;DHT22;23625;48.784;9.336;2022-10-16T00:14:11;15.90;99.90
37786;DHT22;23625;48.784;9.336;2022-10-16T00:16:37;15.90;99.90
37786;DHT22;23625;48.784;9.336;2022-10-16T00:19:03;15.80;99.90
37786;DHT22;23625;48.784;9.336;2022-10-16T00:21:29;15.80;99.90
37786;DHT22;23625;48.784;9.336;2022-10-16T00:23:58;15.80;99.90
37786;DHT22;23625;48.784;9.336;2022-10-16T00:26:26;15.80;99.90
37786;DHT22;23625;48.784;9.336;2022-10-16T00:28:52;15.80;99.90
37786;DHT22;23625;48.784;9.336;2022-10-16T00:31:19;15.70;99.90
37786;DHT22;23625;48.784;9.336;2022-10-16T00:33:45;15.60;99.90
37786;DHT22;23625;48.784;9.336;2022-10-16T00:36:14;15.60;99.90
37786;DHT22;23625;48.784;9.336;2022-10-16T00:38:41;15.60;99.90
37786;DHT22;23625;48.784;9.336;2022-10-16T00:41:09;15.60;99.90
37786;DHT22;23625;48.784;9.336;2022-10-16T00:44:02;15.60;99.90
37786;DHT22;23625;48.784;9.336;2022-10-16T00:46:42;15.50;99.90
37786;DHT22;23625;48.784;9.336;2022-10-16T00:49:14;15.50;99.90
37786;DHT22;23625;48.784;9.336;2022-10-16T00:51:46;15.50;99.90
37786;DHT22;23625;48.784;9.336;2022-10-16T00:54:16;15.50;99.90
37786;DHT22;23625;48.784;9.336;2022-10-16T00:56:43;15.40;99.90
37786;DHT22;23625;48.784;9.336;2022-10-16T00:59:16;15.40;99.90
37786;DHT22;23625;48.784;9.336;2022-10-16T01:01:42;15.30;99.90
37786;DHT22;23625;48.784;9.336;2022-10-16T01:04:07;15.30;99.90
37786;DHT22;23625;48.784;9.336;2022-10-16T01:06:51;15.30;99.90
37786;DHT22;23625;48.784;9.336;2022-10-16T01:09:30;15.30;99.90
37786;DHT22;23625;48.784;9.336;2022-10-16T01:14:45;15.20;99.90
37786;DHT22;23625;48.784;9.336;2022-10-16T01:17:22;15.20;99.90
37786;DHT22;23625;48.784;9.336;2022-10-16T01:20:20;15.10;99.90
37786;DHT22;23625;48.784;9.336;2022-10-16T01:23:04;15.10;99.90
37786;DHT22;23625;48.784;9.336;2022-10-16T01:28:19;15.00;99.90
37786;DHT22;23625;48.784;9.336;2022-10-16T01:30:47;15.00;99.90
37786;DHT22;23625;48.784;9.336;2022-10-16T01:33:16;15.00;99.90
37786;DHT22;23625;48.784;9.336;2022-10-16T01:35:58;15.00;99.90
37786;DHT22;23625;48.784;9.336;2022-10-16T01:38:34;15.00;99.90
37786;DHT22;23625;48.784;9.336;2022-10-16T01:41:09;15.00;99.90
37786;DHT22;23625;48.784;9.336;2022-10-16T01:43:43;15.10;99.90
37786;DHT22;23625;48.784;9.336;2022-10-16T01:46:10;15.10;99.90
37786;DHT22;23625;48.784;9.336;2022-10-16T01:48:39;15.10;99.90
37786;DHT22;23625;48.784;9.336;2022-10-16T01:51:09;15.00;99.90
37786;DHT22;23625;48.784;9.336;2022-10-16T01:53:36;15.00;99.90
37786;DHT22;23625;48.784;9.336;2022-10-16T01:56:04;15.10;99.90
37786;DHT22;23625;48.784;9.336;2022-10-16T01:58:34;15.10;99.90
37786;DHT22;23625;48.784;9.336;2022-10-16T02:01:02;15.10;99.90
37786;DHT22;23625;48.784;9.336;2022-10-16T02:03:28;15.00;99.90
37786;DHT22;23625;48.784;9.336;2022-10-16T02:05:56;15.00;99.90
37786;DHT22;23625;48.784;9.336;2022-10-16T02:08:24;15.00;99.90
37786;DHT22;23625;48.784;9.336;2022-10-16T02:10:51;15.00;99.90
37786;DHT22;23625;48.784;9.336;2022-10-16T02:13:40;15.00;99.90
37786;DHT22;23625;48.784;9.336;2022-10-16T02:16:08;15.00;99.90
37786;DHT22;23625;48.784;9.336;2022-10-16T02:18:34;15.00;99.90
37786;DHT22;23625;48.784;9.336;2022-10-16T02:23:37;15.10;99.90
37786;DHT22;23625;48.784;9.336;2022-10-16T02:26:09;15.10;99.90
37786;DHT22;23625;48.784;9.336;2022-10-16T02:28:46;15.10;99.90
37786;DHT22;23625;48.784;9.336;2022-10-16T02:31:18;15.10;99.90
37786;DHT22;23625;48.784;9.336;2022-10-16T02:33:46;15.10;99.90
37786;DHT22;23625;48.784;9.336;2022-10-16T02:36:12;15.10;99.90
37786;DHT22;23625;48.784;9.336;2022-10-16T02:38:39;15.10;99.90
37786;DHT22;23625;48.784;9.336;2022-10-16T02:41:05;15.10;99.90
37786;DHT22;23625;48.784;9.336;2022-10-16T02:43:31;15.10;99.90
37786;DHT22;23625;48.784;9.336;2022-10-16T02:45:59;15.10;99.90
37786;DHT22;23625;48.784;9.336;2022-10-16T02:48:25;15.20;99.90
37786;DHT22;23625;48.784;9.336;2022-10-16T02:50:50;15.20;99.90
37786;DHT22;23625;48.784;9.336;2022-10-16T02:53:16;15.30;99.90
37786;DHT22;23625;48.784;9.336;2022-10-16T02:55:42;15.30;99.90
37786;DHT22;23625;48.784;9.336;2022-10-16T02:58:07;15.20;99.90
37786;DHT22;23625;48.784;9.336;2022-10-16T03:00:33;15.30;99.90
37786;DHT22;23625;48.784;9.336;2022-10-16T03:02:59;15.20;99.90
37786;DHT22;23625;48.784;9.336;2022-10-16T03:05:24;15.30;99.90
37786;DHT22;23625;48.784;9.336;2022-10-16T03:07:50;15.30;99.90
37786;DHT22;23625;48.784;9.336;2022-10-16T03:10:15;15.30;99.90
37786;DHT22;23625;48.784;9.336;2022-10-16T03:12:41;15.40;99.90
37786;DHT22;23625;48.784;9.336;2022-10-16T03:15:07;15.30;99.90
37786;DHT22;23625;48.784;9.336;2022-10-16T03:17:33;15.40;99.90
37786;DHT22;23625;48.784;9.336;2022-10-16T03:19:58;15.40;99.90
37786;DHT22;23625;48.784;9.336;2022-10-16T03:22:24;15.30;99.90
37786;DHT22;23625;48.784;9.336;2022-10-16T03:24:49;15.30;99.90
37786;DHT22;23625;48.784;9.336;2022-10-16T03:27:15;15.30;99.90
37786;DHT22;23625;48.784;9.336;2022-10-16T03:29:41;15.30;99.90
37786;DHT22;23625;48.784;9.336;2022-10-16T03:32:06;15.30;99.90
37786;DHT22;23625;48.784;9.336;2022-10-16T03:34:32;15.30;99.90
37786;DHT22;23625;48.784;9.336;2022-10-16T03:36:57;15.30;99.90
37786;DHT22;23625;48.784;9.336;2022-10-16T03:39:23;15.20;99.90
37786;DHT22;23625;48.784;9.336;2022-10-16T03:41:48;15.20;99.90
37786;DHT22;23625;48.784;9.336;2022-10-16T03:44:14;15.20;99.90
37786;DHT22;23625;48.784;9.336;2022-10-16T03:46:40;15.20;99.90
37786;DHT22;23625;48.784;9.336;2022-10-16T03:49:06;15.20;99.90
37786;DHT22;23625;48.784;9.336;2022-10-16T03:51:32;15.20;99.90
37786;DHT22;23625;48.784;9.336;2022-10-16T03:53:57;15.20;99.90
37786;DHT22;23625;48.784;9.336;2022-10-16T03:56:23;15.20;99.90
37786;DHT22;23625;48.784;9.336;2022-10-16T03:58:48;15.10;99.90
37786;DHT22;23625;48.784;9.336;2022-10-16T04:01:14;15.10;99.90
37786;DHT22;23625;48.784;9.336;2022-10-16T04:03:40;15.10;99.90
37786;DHT22;23625;48.784;9.336;2022-10-16T04:06:05;15.10;99.90
37786;DHT22;23625;48.784;9.336;2022-10-16T04:08:31;15.00;99.90
37786;DHT22;23625;48.784;9.336;2022-10-16T04:10:59;14.90;99.90
37786;DHT22;23625;48.784;9.336;2022-10-16T04:13:25;14.90;99.90
37786;DHT22;23625;48.784;9.336;2022-10-16T04:15:50;14.90;99.90
37786;DHT22;23625;48.784;9.336;2022-10-16T04:18:16;14.90;99.90
37786;DHT22;23625;48.784;9.336;2022-10-16T04:20:41;14.80;99.90
37786;DHT22;23625;48.784;9.336;2022-10-16T04:23:07;14.70;99.90
37786;DHT22;23625;48.784;9.336;2022-10-16T04:25:32;14.70;99.90
37786;DHT22;23625;48.784;9.336;2022-10-16T04:27:58;14.70;99.90
37786;DHT22;23625;48.784;9.336;2022-10-16T04:30:24;14.70;99.90
37786;DHT22;23625;48.784;9.336;2022-10-16T04:32:51;14.70;99.90
37786;DHT22;23625;48.784;9.336;2022-10-16T04:35:18;14.60;99.90
37786;DHT22;23625;48.784;9.336;2022-10-16T04:37:44;14.60;99.90
37786;DHT22;23625;48.784;9.336;2022-10-16T04:40:10;14.60;99.90
37786;DHT22;23625;48.784;9.336;2022-10-16T04:42:35;14.60;99.90
37786;DHT22;23625;48.784;9.336;2022-10-16T04:45:01;14.50;99.90
37786;DHT22;23625;48.784;9.336;2022-10-16T04:47:26;14.50;99.90
37786;DHT22;23625;48.784;9.336;2022-10-16T04:49:52;14.50;99.90
37786;DHT22;23625;48.784;9.336;2022-10-16T04:52:17;14.50;99.90
37786;DHT22;23625;48.784;9.336;2022-10-16T04:54:44;14.50;99.90
37786;DHT22;23625;48.784;9.336;2022-10-16T04:57:10;14.50;99.90
37786;DHT22;23625;48.784;9.336;2022-10-16T04:59:36;14.50;99.90
37786;DHT22;23625;48.784;9.336;2022-10-16T05:02:02;14.50;99.90
37786;DHT22;23625;48.784;9.336;2022-10-16T05:04:28;14.50;99.90
37786;DHT22;23625;48.784;9.336;2022-10-16T05:06:53;14.50;99.90
37786;DHT22;23625;48.784;9.336;2022-10-16T05:09:19;14.50;99.90
37786;DHT22;23625;48.784;9.336;2022-10-16T05:11:44;14.50;99.90
37786;DHT22;23625;48.784;9.336;2022-10-16T05:14:10;14.50;99.90
37786;DHT22;23625;48.784;9.336;2022-10-16T05:16:36;14.50;99.90
37786;DHT22;23625;48.784;9.336;2022-10-16T05:19:01;14.50;99.90
37786;DHT22;23625;48.784;9.336;2022-10-16T05:21:27;14.40;99.90
37786;DHT22;23625;48.784;9.336;2022-10-16T05:23:53;14.40;99.90
37786;DHT22;23625;48.784;9.336;2022-10-16T05:26:19;14.40;99.90
37786;DHT22;23625;48.784;9.336;2022-10-16T05:28:46;14.40;99.90
37786;DHT22;23625;48.784;9.336;2022-10-16T05:31:11;14.30;99.90
37786;DHT22;23625;48.784;9.336;2022-10-16T05:33:37;14.30;99.90
37786;DHT22;23625;48.784;9.336;2022-10-16T05:36:04;14.30;99.90
37786;DHT22;23625;48.784;9.336;2022-10-16T05:38:29;14.30;99.90
37786;DHT22;23625;48.784;9.336;2022-10-16T05:40:55;14.30;99.90
37786;DHT22;23625;48.784;9.336;2022-10-16T05:43:21;14.30;99.90
37786;DHT22;23625;48.784;9.336;2022-10-16T05:46:04;14.30;99.90
37786;DHT22;23625;48.784;9.336;2022-10-16T05:48:31;14.30;99.90
37786;DHT22;23625;48.784;9.336;2022-10-16T05:50:58;14.30;99.90
37786;DHT22;23625;48.784;9.336;2022-10-16T05:53:24;14.20;99.90
37786;DHT22;23625;48.784;9.336;2022-10-16T05:55:55;14.20;99.90
37786;DHT22;23625;48.784;9.336;2022-10-16T05:58:21;14.20;99.90
37786;DHT22;23625;48.784;9.336;2022-10-16T06:01:01;14.20;99.90
37786;DHT22;23625;48.784;9.336;2022-10-16T06:03:27;14.20;99.90
37786;DHT22;23625;48.784;9.336;2022-10-16T06:05:53;14.20;99.90
37786;DHT22;23625;48.784;9.336;2022-10-16T06:08:20;14.20;99.90
37786;DHT22;23625;48.784;9.336;2022-10-16T06:10:47;14.20;99.90
37786;DHT22;23625;48.784;9.336;2022-10-16T06:13:13;14.20;99.90
37786;DHT22;23625;48.784;9.336;2022-10-16T06:15:40;14.20;99.90
37786;DHT22;23625;48.784;9.336;2022-10-16T06:18:09;14.20;99.90
37786;DHT22;23625;48.784;9.336;2022-10-16T06:20:36;14.20;99.90
37786;DHT22;23625;48.784;9.336;2022-10-16T06:23:02;14.20;99.90
37786;DHT22;23625;48.784;9.336;2022-10-16T06:25:30;14.20;99.90
37786;DHT22;23625;48.784;9.336;2022-10-16T06:27:55;14.20;99.90
37786;DHT22;23625;48.784;9.336;2022-10-16T06:30:21;14.20;99.90
37786;DHT22;23625;48.784;9.336;2022-10-16T06:32:46;14.30;99.90
37786;DHT22;23625;48.784;9.336;2022-10-16T06:35:12;14.30;99.90
37786;DHT22;23625;48.784;9.336;2022-10-16T06:37:37;14.30;99.90
37786;DHT22;23625;48.784;9.336;2022-10-16T06:40:03;14.30;99.90
37786;DHT22;23625;48.784;9.336;2022-10-16T06:42:29;14.30;99.90
37786;DHT22;23625;48.784;9.336;2022-10-16T06:44:55;14.30;99.90
37786;DHT22;23625;48.784;9.336;2022-10-16T06:47:21;14.30;99.90
37786;DHT22;23625;48.784;9.336;2022-10-16T06:49:46;14.40;99.90
37786;DHT22;23625;48.784;9.336;2022-10-16T06:52:12;14.40;99.90
37786;DHT22;23625;48.784;9.336;2022-10-16T06:54:37;14.50;99.90
37786;DHT22;23625;48.784;9.336;2022-10-16T06:57:03;14.50;99.90
37786;DHT22;23625;48.784;9.336;2022-10-16T06:59:28;14.60;99.90
37786;DHT22;23625;48.784;9.336;2022-10-16T07:01:54;14.70;99.90
37786;DHT22;23625;48.784;9.336;2022-10-16T07:04:20;14.60;99.90
37786;DHT22;23625;48.784;9.336;2022-10-16T07:06:45;14.70;99.90
37786;DHT22;23625;48.784;9.336;2022-10-16T07:09:11;14.70;99.90
37786;DHT22;23625;48.784;9.336;2022-10-16T07:11:39;14.80;99.90
37786;DHT22;23625;48.784;9.336;2022-10-16T07:14:14;14.80;99.90
37786;DHT22;23625;48.784;9.336;2022-10-16T07:16:40;14.80;99.90
37786;DHT22;23625;48.784;9.336;2022-10-16T07:19:05;14.90;99.90
37786;DHT22;23625;48.784;9.336;2022-10-16T07:21:33;14.90;99.90
37786;DHT22;23625;48.784;9.336;2022-10-16T07:24:02;14.90;99.90
37786;DHT22;23625;48.784;9.336;2022-10-16T07:26:30;15.00;99.90
37786;DHT22;23625;48.784;9.336;2022-10-16T07:28:56;15.00;99.90
37786;DHT22;23625;48.784;9.336;2022-10-16T07:31:24;15.10;99.90
37786;DHT22;23625;48.784;9.336;2022-10-16T07:33:50;15.10;99.90
37786;DHT22;23625;48.784;9.336;2022-10-16T07:36:18;15.20;99.90
37786;DHT22;23625;48.784;9.336;2022-10-16T07:38:45;15.20;99.90
37786;DHT22;23625;48.784;9.336;2022-10-16T07:41:14;15.20;99.90
37786;DHT22;23625;48.784;9.336;2022-10-16T07:43:40;15.20;99.90
37786;DHT22;23625;48.784;9.336;2022-10-16T07:46:06;15.30;99.90
37786;DHT22;23625;48.784;9.336;2022-10-16T07:48:33;15.20;99.90
37786;DHT22;23625;48.784;9.336;2022-10-16T07:51:02;15.30;99.90
37786;DHT22;23625;48.784;9.336;2022-10-16T07:53:28;15.30;99.90
37786;DHT22;23625;48.784;9.336;2022-10-16T07:56:02;15.40;99.90
37786;DHT22;23625;48.784;9.336;2022-10-16T07:58:28;15.40;99.90
37786;DHT22;23625;48.784;9.336;2022-10-16T08:00:54;15.50;99.90
37786;DHT22;23625;48.784;9.336;2022-10-16T08:03:20;15.50;99.90
37786;DHT22;23625;48.784;9.336;2022-10-16T08:05:45;15.50;99.90
37786;DHT22;23625;48.784;9.336;2022-10-16T08:08:13;15.60;99.90
37786;DHT22;23625;48.784;9.336;2022-10-16T08:10:39;15.70;99.90
37786;DHT22;23625;48.784;9.336;2022-10-16T08:13:05;15.70;99.90
37786;DHT22;23625;48.784;9.336;2022-10-16T08:15:31;15.80;99.90
37786;DHT22;23625;48.784;9.336;2022-10-16T08:18:01;15.90;99.90
37786;DHT22;23625;48.784;9.336;2022-10-16T08:20:28;16.00;99.90
37786;DHT22;23625;48.784;9.336;2022-10-16T08:22:54;16.00;99.90
37786;DHT22;23625;48.784;9.336;2022-10-16T08:25:21;16.10;99.90
37786;DHT22;23625;48.784;9.336;2022-10-16T08:27:47;16.30;99.90
37786;DHT22;23625;48.784;9.336;2022-10-16T08:30:14;16.40;99.90
37786;DHT22;23625;48.784;9.336;2022-10-16T08:32:40;16.60;99.90
37786;DHT22;23625;48.784;9.336;2022-10-16T08:35:08;16.70;99.90
37786;DHT22;23625;48.784;9.336;2022-10-16T08:37:34;16.90;99.90
37786;DHT22;23625;48.784;9.336;2022-10-16T08:40:00;17.20;99.90
37786;DHT22;23625;48.784;9.336;2022-10-16T08:48:47;17.70;99.90
37786;DHT22;23625;48.784;9.336;2022-10-16T08:51:42;17.80;99.90
37786;DHT22;23625;48.784;9.336;2022-10-16T08:54:26;17.90;99.90
37786;DHT22;23625;48.784;9.336;2022-10-16T08:57:00;18.00;99.90
37786;DHT22;23625;48.784;9.336;2022-10-16T08:59:29;18.00;99.90
37786;DHT22;23625;48.784;9.336;2022-10-16T09:01:55;18.10;99.90
37786;DHT22;23625;48.784;9.336;2022-10-16T09:15:24;18.20;99.90
37786;DHT22;23625;48.784;9.336;2022-10-16T09:25:50;18.60;99.90
37786;DHT22;23625;48.784;9.336;2022-10-16T09:28:17;18.80;99.90
37786;DHT22;23625;48.784;9.336;2022-10-16T09:30:43;19.30;99.90
37786;DHT22;23625;48.784;9.336;2022-10-16T09:33:11;19.20;99.90
37786;DHT22;23625;48.784;9.336;2022-10-16T09:35:45;19.50;99.90
37786;DHT22;23625;48.784;9.336;2022-10-16T09:38:23;19.60;99.90
37786;DHT22;23625;48.784;9.336;2022-10-16T09:40:50;19.60;99.90
37786;DHT22;23625;48.784;9.336;2022-10-16T09:43:22;19.70;99.90
37786;DHT22;23625;48.784;9.336;2022-10-16T09:46:04;19.70;99.90
37786;DHT22;23625;48.784;9.336;2022-10-16T09:48:50;20.00;99.90
37786;DHT22;23625;48.784;9.336;2022-10-16T09:53:46;20.50;99.90
37786;DHT22;23625;48.784;9.336;2022-10-16T09:56:25;20.50;99.90
37786;DHT22;23625;48.784;9.336;2022-10-16T09:58:53;20.60;99.90
37786;DHT22;23625;48.784;9.336;2022-10-16T10:01:19;20.80;99.90
37786;DHT22;23625;48.784;9.336;2022-10-16T10:03:46;21.10;99.90
37786;DHT22;23625;48.784;9.336;2022-10-16T10:06:25;21.40;99.90
37786;DHT22;23625;48.784;9.336;2022-10-16T10:09:21;21.50;99.90
37786;DHT22;23625;48.784;9.336;2022-10-16T10:11:53;21.60;99.90
37786;DHT22;23625;48.784;9.336;2022-10-16T10:19:37;22.10;99.90
37786;DHT22;23625;48.784;9.336;2022-10-16T10:22:17;22.30;99.90
37786;DHT22;23625;48.784;9.336;2022-10-16T10:24:55;22.20;99.90
37786;DHT22;23625;48.784;9.336;2022-10-16T10:27:24;22.20;99.90
37786;DHT22;23625;48.784;9.336;2022-10-16T10:35:22;22.20;99.90
37786;DHT22;23625;48.784;9.336;2022-10-16T10:37:55;22.30;99.90
37786;DHT22;23625;48.784;9.336;2022-10-16T10:40:45;22.40;99.90
37786;DHT22;23625;48.784;9.336;2022-10-16T10:46:33;23.10;99.90
37786;DHT22;23625;48.784;9.336;2022-10-16T10:49:10;23.50;98.90
37786;DHT22;23625;48.784;9.336;2022-10-16T10:51:52;23.80;99.90
37786;DHT22;23625;48.784;9.336;2022-10-16T10:54:35;23.90;97.00
37786;DHT22;23625;48.784;9.336;2022-10-16T10:57:10;24.10;96.30
37786;DHT22;23625;48.784;9.336;2022-10-16T11:05:37;24.20;90.10
37786;DHT22;23625;48.784;9.336;2022-10-16T11:08:16;24.40;92.70
37786;DHT22;23625;48.784;9.336;2022-10-16T11:16:27;24.40;88.70
37786;DHT22;23625;48.784;9.336;2022-10-16T11:21:42;24.60;92.30
37786;DHT22;23625;48.784;9.336;2022-10-16T11:24:23;24.80;91.30
37786;DHT22;23625;48.784;9.336;2022-10-16T11:26:54;25.10;85.30
37786;DHT22;23625;48.784;9.336;2022-10-16T11:29:28;25.30;89.50
37786;DHT22;23625;48.784;9.336;2022-10-16T11:31:59;25.50;85.00
37786;DHT22;23625;48.784;9.336;2022-10-16T11:34:41;25.50;81.50
37786;DHT22;23625;48.784;9.336;2022-10-16T11:37:14;25.70;78.40
37786;DHT22;23625;48.784;9.336;2022-10-16T11:39:43;25.80;76.70
37786;DHT22;23625;48.784;9.336;2022-10-16T11:42:19;26.00;74.20
37786;DHT22;23625;48.784;9.336;2022-10-16T11:45:00;26.10;71.70
37786;DHT22;23625;48.784;9.336;2022-10-16T11:49:59;26.10;73.90
37786;DHT22;23625;48.784;9.336;2022-10-16T11:52:39;26.10;75.10
37786;DHT22;23625;48.784;9.336;2022-10-16T11:55:16;26.20;74.90
37786;DHT22;23625;48.784;9.336;2022-10-16T11:57:48;26.30;77.50
37786;DHT22;23625;48.784;9.336;2022-10-16T12:00:20;26.30;72.80
37786;DHT22;23625;48.784;9.336;2022-10-16T12:03:04;26.40;74.30
37786;DHT22;23625;48.784;9.336;2022-10-16T12:05:55;26.50;72.60
37786;DHT22;23625;48.784;9.336;2022-10-16T12:08:23;26.50;71.20
37786;DHT22;23625;48.784;9.336;2022-10-16T12:10:51;26.50;70.70
37786;DHT22;23625;48.784;9.336;2022-10-16T12:13:39;26.70;72.60
37786;DHT22;23625;48.784;9.336;2022-10-16T12:16:22;26.50;71.30
37786;DHT22;23625;48.784;9.336;2022-10-16T12:18:48;26.50;71.60
37786;DHT22;23625;48.784;9.336;2022-10-16T12:21:16;26.70;71.20
37786;DHT22;23625;48.784;9.336;2022-10-16T12:26:34;26.70;65.70
37786;DHT22;23625;48.784;9.336;2022-10-16T12:32:00;27.10;67.40
37786;DHT22;23625;48.784;9.336;2022-10-16T12:34:39;27.20;65.80
37786;DHT22;23625;48.784;9.336;2022-10-16T12:37:19;27.30;64.00
37786;DHT22;23625;48.784;9.336;2022-10-16T12:39:47;27.30;62.30
37786;DHT22;23625;48.784;9.336;2022-10-16T12:44:55;27.10;62.10
37786;DHT22;23625;48.784;9.336;2022-10-16T12:49:56;27.20;64.20
37786;DHT22;23625;48.784;9.336;2022-10-16T12:54:59;27.10;60.20
37786;DHT22;23625;48.784;9.336;2022-10-16T13:12:06;26.40;65.00
37786;DHT22;23625;48.784;9.336;2022-10-16T13:28:01;25.80;81.20
37786;DHT22;23625;48.784;9.336;2022-10-16T13:30:41;26.10;79.30
37786;DHT22;23625;48.784;9.336;2022-10-16T13:33:14;26.20;71.40
37786;DHT22;23625;48.784;9.336;2022-10-16T13:35:53;26.10;71.50
37786;DHT22;23625;48.784;9.336;2022-10-16T13:38:26;25.90;73.70
37786;DHT22;23625;48.784;9.336;2022-10-16T13:41:04;25.90;76.70
37786;DHT22;23625;48.784;9.336;2022-10-16T13:46:16;25.70;79.20
37786;DHT22;23625;48.784;9.336;2022-10-16T13:48:43;25.60;79.50
37786;DHT22;23625;48.784;9.336;2022-10-16T13:51:14;25.50;77.80
37786;DHT22;23625;48.784;9.336;2022-10-16T13:53:40;25.30;83.00
37786;DHT22;23625;48.784;9.336;2022-10-16T13:56:14;25.40;87.70
37786;DHT22;23625;48.784;9.336;2022-10-16T13:58:40;25.50;80.90
37786;DHT22;23625;48.784;9.336;2022-10-16T14:01:19;25.60;78.40
37786;DHT22;23625;48.784;9.336;2022-10-16T14:03:48;25.60;82.50
37786;DHT22;23625;48.784;9.336;2022-10-16T14:06:17;25.70;85.30
37786;DHT22;23625;48.784;9.336;2022-10-16T14:08:46;25.70;82.10
37786;DHT22;23625;48.784;9.336;2022-10-16T14:11:13;25.50;86.10
37786;DHT22;23625;48.784;9.336;2022-10-16T14:13:43;25.50;86.90
37786;DHT22;23625;48.784;9.336;2022-10-16T14:16:11;25.40;83.20
37786;DHT22;23625;48.784;9.336;2022-10-16T14:18:41;25.30;79.30
37786;DHT22;23625;48.784;9.336;2022-10-16T14:21:12;25.10;92.00
37786;DHT22;23625;48.784;9.336;2022-10-16T14:23:40;24.90;97.20
37786;DHT22;23625;48.784;9.336;2022-10-16T14:26:12;24.60;99.80
37786;DHT22;23625;48.784;9.336;2022-10-16T14:28:39;24.40;99.90
37786;DHT22;23625;48.784;9.336;2022-10-16T14:33:49;23.80;99.90
37786;DHT22;23625;48.784;9.336;2022-10-16T14:36:15;23.60;99.90
37786;DHT22;23625;48.784;9.336;2022-10-16T14:41:15;23.30;99.90
37786;DHT22;23625;48.784;9.336;2022-10-16T14:43:42;23.20;99.90
37786;DHT22;23625;48.784;9.336;2022-10-16T14:46:19;23.10;99.90
37786;DHT22;23625;48.784;9.336;2022-10-16T14:48:48;23.00;99.90
37786;DHT22;23625;48.784;9.336;2022-10-16T14:51:16;22.90;99.90
37786;DHT22;23625;48.784;9.336;2022-10-16T14:53:42;22.80;99.90
37786;DHT22;23625;48.784;9.336;2022-10-16T14:56:14;22.70;99.90
37786;DHT22;23625;48.784;9.336;2022-10-16T14:58:41;22.60;99.90
37786;DHT22;23625;48.784;9.336;2022-10-16T15:01:08;22.50;99.90
37786;DHT22;23625;48.784;9.336;2022-10-16T15:03:36;22.40;99.90
37786;DHT22;23625;48.784;9.336;2022-10-16T15:06:01;22.30;99.90
37786;DHT22;23625;48.784;9.336;2022-10-16T15:08:27;22.20;99.90
37786;DHT22;23625;48.784;9.336;2022-10-16T15:10:52;22.20;99.90
37786;DHT22;23625;48.784;9.336;2022-10-16T15:13:18;22.10;99.90
37786;DHT22;23625;48.784;9.336;2022-10-16T15:15:45;22.00;99.90
37786;DHT22;23625;48.784;9.336;2022-10-16T15:18:11;21.90;99.90
37786;DHT22;23625;48.784;9.336;2022-10-16T15:20:38;21.90;99.90
37786;DHT22;23625;48.784;9.336;2022-10-16T15:23:15;21.90;99.90
37786;DHT22;23625;48.784;9.336;2022-10-16T15:25:43;21.90;99.90
37786;DHT22;23625;48.784;9.336;2022-10-16T15:28:10;21.80;99.90
37786;DHT22;23625;48.784;9.336;2022-10-16T15:30:37;21.70;99.90
37786;DHT22;23625;48.784;9.336;2022-10-16T15:33:04;21.50;99.90
37786;DHT22;23625;48.784;9.336;2022-10-16T15:35:30;21.50;99.90
37786;DHT22;23625;48.784;9.336;2022-10-16T15:37:55;21.40;99.90
37786;DHT22;23625;48.784;9.336;2022-10-16T15:40:21;21.20;99.90
37786;DHT22;23625;48.784;9.336;2022-10-16T15:42:48;21.20;99.90
37786;DHT22;23625;48.784;9.336;2022-10-16T15:45:17;21.10;99.90
37786;DHT22;23625;48.784;9.336;2022-10-16T15:47:44;21.00;99.90
37786;DHT22;23625;48.784;9.336;2022-10-16T15:50:11;20.90;99.90
37786;DHT22;23625;48.784;9.336;2022-10-16T15:52:38;20.80;99.90
37786;DHT22;23625;48.784;9.336;2022-10-16T15:55:09;20.70;99.90
37786;DHT22;23625;48.784;9.336;2022-10-16T15:57:36;20.70;99.90
37786;DHT22;23625;48.784;9.336;2022-10-16T16:00:06;20.50;99.90
37786;DHT22;23625;48.784;9.336;2022-10-16T16:02:32;20.40;99.90
37786;DHT22;23625;48.784;9.336;2022-10-16T16:04:57;20.30;99.90
37786;DHT22;23625;48.784;9.336;2022-10-16T16:07:23;20.10;99.90
37786;DHT22;23625;48.784;9.336;2022-10-16T16:09:48;20.00;99.90
37786;DHT22;23625;48.784;9.336;2022-10-16T16:12:14;19.90;99.90
37786;DHT22;23625;48.784;9.336;2022-10-16T16:14:40;19.70;99.90
37786;DHT22;23625;48.784;9.336;2022-10-16T16:17:05;19.70;99.90
37786;DHT22;23625;48.784;9.336;2022-10-16T16:19:31;19.60;99.90
37786;DHT22;23625;48.784;9.336;2022-10-16T16:21:57;19.50;99.90
37786;DHT22;23625;48.784;9.336;2022-10-16T16:24:25;19.50;99.90
37786;DHT22;23625;48.784;9.336;2022-10-16T16:26:50;19.30;99.90
37786;DHT22;23625;48.784;9.336;2022-10-16T16:29:16;19.10;99.90
37786;DHT22;23625;48.784;9.336;2022-10-16T16:31:42;19.10;99.90
37786;DHT22;23625;48.784;9.336;2022-10-16T16:34:08;18.90;99.90
37786;DHT22;23625;48.784;9.336;2022-10-16T16:36:34;18.80;99.90
37786;DHT22;23625;48.784;9.336;2022-10-16T16:39:01;18.70;99.90
37786;DHT22;23625;48.784;9.336;2022-10-16T16:41:28;18.50;99.90
37786;DHT22;23625;48.784;9.336;2022-10-16T16:43:55;18.50;99.90
37786;DHT22;23625;48.784;9.336;2022-10-16T16:46:21;18.40;99.90
37786;DHT22;23625;48.784;9.336;2022-10-16T16:48:47;18.30;99.90
37786;DHT22;23625;48.784;9.336;2022-10-16T16:51:17;18.20;99.90
37786;DHT22;23625;48.784;9.336;2022-10-16T16:53:49;18.20;99.90
37786;DHT22;23625;48.784;9.336;2022-10-16T16:56:16;18.10;99.90
37786;DHT22;23625;48.784;9.336;2022-10-16T16:58:45;18.00;99.90
37786;DHT22;23625;48.784;9.336;2022-10-16T17:01:11;18.00;99.90
37786;DHT22;23625;48.784;9.336;2022-10-16T17:03:37;17.80;99.90
37786;DHT22;23625;48.784;9.336;2022-10-16T17:06:04;17.70;99.90
37786;DHT22;23625;48.784;9.336;2022-10-16T17:08:30;17.70;99.90
37786;DHT22;23625;48.784;9.336;2022-10-16T17:10:57;17.70;99.90
37786;DHT22;23625;48.784;9.336;2022-10-16T17:13:28;17.70;99.90
37786;DHT22;23625;48.784;9.336;2022-10-16T17:15:54;17.70;99.90
37786;DHT22;23625;48.784;9.336;2022-10-16T17:18:22;17.70;99.90
37786;DHT22;23625;48.784;9.336;2022-10-16T17:20:49;17.70;99.90
37786;DHT22;23625;48.784;9.336;2022-10-16T17:23:16;17.70;99.90
37786;DHT22;23625;48.784;9.336;2022-10-16T17:25:43;17.70;99.90
37786;DHT22;23625;48.784;9.336;2022-10-16T17:28:10;17.70;99.90
37786;DHT22;23625;48.784;9.336;2022-10-16T17:30:37;17.70;99.90
37786;DHT22;23625;48.784;9.336;2022-10-16T17:33:03;17.70;99.90
37786;DHT22;23625;48.784;9.336;2022-10-16T17:35:29;17.70;99.90
37786;DHT22;23625;48.784;9.336;2022-10-16T17:38:00;17.70;99.90